РПИ Душанбе

Руководство

Evgeny Vygornitsky*

Куратор
Инструкторы РПИ
Evgeny Vygornitsky (Supervisor)
Sergey Balandin (Senior Instructor)
Входит в состав
Центральная Азия

Диспетчеры РПИ

Диспетчер Рейтинг Допуски *

Аэропорты РПИ

ICAO Город Название Погода
UTDD Душанбе Душанбе UTDD 221230Z 11004MPS 9999 FEW066CB 23/14 Q1015 R09/D NOSIG RMK QFE693/0924
UTDL Худжанд Худжанд UTDL 221230Z 12002MPS 9999 FEW060CB BKN086 25/09 Q1014 R08/CLRD70 NOSIG RMK QFE722/0962